createdAt,value
2022-09-06T00:00:43.369Z,15.76
2022-09-06T00:03:11.948Z,15.74
2022-09-06T00:05:38.476Z,15.78
2022-09-06T00:08:05.963Z,15.81
2022-09-06T00:10:33.519Z,15.82
2022-09-06T00:13:02.151Z,15.85
2022-09-06T00:15:28.742Z,15.81
2022-09-06T00:17:58.279Z,15.83
2022-09-06T00:20:27.300Z,15.78
2022-09-06T00:22:58.386Z,15.81
2022-09-06T00:25:25.554Z,15.83
2022-09-06T00:27:57.011Z,15.83
2022-09-06T00:30:24.265Z,15.88
2022-09-06T00:32:51.014Z,15.92
2022-09-06T00:35:18.377Z,15.97
2022-09-06T00:37:45.121Z,15.88
2022-09-06T00:40:12.322Z,15.83
2022-09-06T00:42:38.865Z,15.93
2022-09-06T00:45:07.326Z,15.93
2022-09-06T00:47:34.919Z,15.94
2022-09-06T00:50:02.622Z,15.90
2022-09-06T00:52:29.365Z,15.79
2022-09-06T00:54:56.022Z,15.73
2022-09-06T00:57:31.532Z,15.64
2022-09-06T00:59:58.743Z,15.64
2022-09-06T01:02:25.430Z,15.56
2022-09-06T01:04:52.709Z,15.64
2022-09-06T01:07:35.562Z,15.61
2022-09-06T01:10:23.782Z,15.70
2022-09-06T01:13:04.214Z,15.49
2022-09-06T01:15:54.049Z,15.57
2022-09-06T01:18:46.684Z,15.62
2022-09-06T01:21:37.905Z,15.53
2022-09-06T01:24:30.891Z,15.51
2022-09-06T01:27:35.155Z,15.55
2022-09-06T01:30:07.485Z,15.51
2022-09-06T01:33:23.879Z,15.51
2022-09-06T01:35:57.711Z,15.59
2022-09-06T01:38:24.257Z,15.50
2022-09-06T01:40:50.781Z,15.53
2022-09-06T01:43:28.996Z,15.43
2022-09-06T01:46:39.478Z,15.55
2022-09-06T01:49:09.087Z,15.56
2022-09-06T01:51:53.884Z,15.50
2022-09-06T01:54:51.137Z,15.49
2022-09-06T01:57:17.552Z,15.46
2022-09-06T01:59:43.925Z,15.44
2022-09-06T02:02:12.609Z,15.45
2022-09-06T02:04:48.946Z,15.48
2022-09-06T02:07:35.711Z,15.57
2022-09-06T02:10:13.111Z,15.48
2022-09-06T02:12:41.289Z,15.45
2022-09-06T02:15:11.798Z,15.40
2022-09-06T02:17:46.396Z,15.39
2022-09-06T02:20:16.769Z,15.45
2022-09-06T02:22:46.115Z,15.32
2022-09-06T02:25:18.564Z,15.38
2022-09-06T02:27:45.118Z,15.40
2022-09-06T02:30:12.002Z,15.38
2022-09-06T02:32:44.622Z,15.35
2022-09-06T02:35:15.656Z,15.39
2022-09-06T02:37:43.473Z,15.36
2022-09-06T02:40:10.761Z,15.36
2022-09-06T02:42:37.306Z,15.29
2022-09-06T02:45:05.232Z,15.33
2022-09-06T02:47:31.754Z,15.27
2022-09-06T02:49:58.254Z,15.34
2022-09-06T02:52:24.875Z,15.33
2022-09-06T02:54:51.714Z,15.28
2022-09-06T02:57:18.247Z,15.25
2022-09-06T02:59:46.183Z,15.29
2022-09-06T03:02:12.741Z,15.38
2022-09-06T03:04:39.246Z,15.39
2022-09-06T03:07:05.779Z,15.40
2022-09-06T03:09:32.298Z,15.44
2022-09-06T03:11:58.885Z,15.34
2022-09-06T03:14:25.403Z,15.31
2022-09-06T03:16:51.997Z,15.44
2022-09-06T03:19:20.107Z,15.34
2022-09-06T03:21:46.619Z,15.34
2022-09-06T03:24:13.277Z,15.32
2022-09-06T03:26:39.789Z,15.34
2022-09-06T03:29:06.413Z,15.31
2022-09-06T03:31:32.959Z,15.37
2022-09-06T03:33:59.996Z,15.34
2022-09-06T03:36:26.521Z,15.39
2022-09-06T03:38:54.058Z,15.35
2022-09-06T03:41:20.584Z,15.40
2022-09-06T03:43:47.096Z,15.44
2022-09-06T03:46:13.699Z,15.44
2022-09-06T03:48:40.275Z,15.43
2022-09-06T03:51:06.805Z,15.44
2022-09-06T03:53:33.319Z,15.48
2022-09-06T03:55:59.886Z,15.45
2022-09-06T03:58:30.440Z,15.41
2022-09-06T04:01:02.096Z,15.40
2022-09-06T04:03:28.656Z,15.42
2022-09-06T04:05:55.194Z,15.43
2022-09-06T04:08:21.813Z,15.47
2022-09-06T04:11:11.646Z,15.35
2022-09-06T04:13:39.475Z,15.37
2022-09-06T04:16:06.270Z,15.35
2022-09-06T04:18:32.794Z,15.31
2022-09-06T04:20:59.901Z,15.31
2022-09-06T04:23:35.245Z,15.27
2022-09-06T04:26:07.916Z,15.36
2022-09-06T04:28:34.536Z,15.38
2022-09-06T04:31:04.930Z,15.42
2022-09-06T04:33:33.109Z,15.37
2022-09-06T04:36:00.778Z,15.41
2022-09-06T04:38:28.683Z,15.43
2022-09-06T04:40:58.069Z,15.36
2022-09-06T04:43:24.588Z,15.42
2022-09-06T04:45:51.189Z,15.42
2022-09-06T04:48:17.731Z,15.40
2022-09-06T04:50:44.241Z,15.40
2022-09-06T04:53:11.044Z,15.33
2022-09-06T04:55:37.935Z,15.39
2022-09-06T04:58:05.053Z,15.43
2022-09-06T05:00:33.477Z,15.48
2022-09-06T05:03:00.019Z,15.49
2022-09-06T05:05:26.532Z,15.49
2022-09-06T05:07:56.424Z,15.54
2022-09-06T05:10:23.637Z,15.55
2022-09-06T05:12:51.745Z,15.57
2022-09-06T05:15:19.279Z,15.56
2022-09-06T05:17:45.783Z,15.59
2022-09-06T05:20:12.709Z,15.63
2022-09-06T05:22:40.002Z,15.64
2022-09-06T05:25:08.008Z,15.66
2022-09-06T05:27:34.511Z,15.65
2022-09-06T05:30:01.025Z,15.73
2022-09-06T05:32:27.532Z,15.71
2022-09-06T05:34:54.043Z,15.69
2022-09-06T05:37:20.540Z,15.68
2022-09-06T05:39:47.082Z,15.71
2022-09-06T05:42:18.582Z,15.72
2022-09-06T05:44:45.730Z,15.71
2022-09-06T05:47:12.233Z,15.74
2022-09-06T05:49:38.750Z,15.71
2022-09-06T05:52:05.358Z,15.81
2022-09-06T05:54:31.965Z,15.78
2022-09-06T05:56:58.473Z,15.81
2022-09-06T05:59:25.076Z,15.78
2022-09-06T06:01:53.319Z,15.85
2022-09-06T06:04:20.347Z,15.88
2022-09-06T06:06:47.124Z,15.87
2022-09-06T06:09:14.069Z,15.90
2022-09-06T06:11:41.151Z,15.96
2022-09-06T06:14:08.282Z,15.93
2022-09-06T06:16:35.370Z,15.92
2022-09-06T06:19:01.929Z,15.98
2022-09-06T06:21:30.077Z,15.98
2022-09-06T06:23:58.431Z,15.99
2022-09-06T06:26:25.960Z,15.97
2022-09-06T06:28:53.274Z,16.01
2022-09-06T06:31:22.268Z,15.99
2022-09-06T06:33:48.909Z,16.08
2022-09-06T06:36:15.280Z,16.03
2022-09-06T06:38:44.223Z,16.02
2022-09-06T06:41:12.681Z,16.08
2022-09-06T06:43:39.203Z,16.07
2022-09-06T06:46:06.992Z,16.08
2022-09-06T06:48:33.563Z,16.16
2022-09-06T06:51:00.126Z,16.15
2022-09-06T06:53:26.775Z,16.12
2022-09-06T06:55:53.300Z,16.20
2022-09-06T06:58:20.048Z,16.18
2022-09-06T07:00:46.632Z,16.27
2022-09-06T07:03:13.596Z,16.25
2022-09-06T07:08:27.103Z,16.29
2022-09-06T07:10:53.662Z,16.38
2022-09-06T07:13:20.335Z,16.42
2022-09-06T07:15:46.838Z,16.40
2022-09-06T07:18:16.096Z,16.65
2022-09-06T07:26:17.385Z,16.56
2022-09-06T07:28:44.170Z,16.78
2022-09-06T07:33:57.810Z,16.90
2022-09-06T07:36:24.338Z,16.92
2022-09-06T07:38:51.446Z,17.23
2022-09-06T07:41:18.919Z,17.29
2022-09-06T07:43:45.655Z,17.39
2022-09-06T07:46:14.468Z,17.92
2022-09-06T07:48:42.480Z,18.20
2022-09-06T07:51:17.399Z,17.94
2022-09-06T07:53:45.788Z,18.08
2022-09-06T07:56:12.691Z,18.17
2022-09-06T07:58:39.884Z,18.50
2022-09-06T08:01:34.261Z,18.46
2022-09-06T08:04:01.639Z,18.22
2022-09-06T08:06:30.083Z,18.38
2022-09-06T08:11:30.851Z,18.34
2022-09-06T08:13:58.518Z,18.43
2022-09-06T08:16:27.800Z,18.82
2022-09-06T08:18:56.272Z,18.61
2022-09-06T08:21:24.176Z,18.82
2022-09-06T08:24:02.069Z,18.94
2022-09-06T08:26:29.754Z,18.90
2022-09-06T08:28:58.844Z,19.05
2022-09-06T08:31:26.143Z,19.00
2022-09-06T08:33:53.482Z,18.70
2022-09-06T08:36:20.035Z,18.91
2022-09-06T08:38:46.586Z,19.16
2022-09-06T08:41:27.520Z,19.43
2022-09-06T08:47:10.138Z,18.92
2022-09-06T08:49:42.931Z,19.36
2022-09-06T08:52:24.599Z,19.12
2022-09-06T08:55:17.564Z,19.05
2022-09-06T08:58:02.749Z,19.35
2022-09-06T09:00:29.977Z,19.58
2022-09-06T09:03:16.983Z,19.66
2022-09-06T09:05:44.543Z,19.53
2022-09-06T09:08:28.892Z,19.79
2022-09-06T09:11:02.213Z,19.60
2022-09-06T09:13:46.845Z,19.57
2022-09-06T09:16:17.235Z,20.06
2022-09-06T09:18:45.934Z,20.03
2022-09-06T09:21:12.608Z,20.10
2022-09-06T09:23:39.098Z,20.40
2022-09-06T09:26:10.965Z,20.46
2022-09-06T09:28:37.505Z,20.62
2022-09-06T09:31:05.295Z,20.48
2022-09-06T09:33:35.686Z,20.32
2022-09-06T09:36:05.689Z,20.22
2022-09-06T09:38:52.946Z,20.34
2022-09-06T09:41:32.193Z,20.64
2022-09-06T09:44:06.499Z,20.76
2022-09-06T09:46:35.208Z,20.80
2022-09-06T09:49:10.789Z,20.52
2022-09-06T09:51:40.007Z,20.71
2022-09-06T09:54:14.937Z,20.90
2022-09-06T09:56:43.695Z,21.47
2022-09-06T09:59:20.798Z,21.29
2022-09-06T10:01:47.578Z,20.85
2022-09-06T10:07:17.719Z,20.62
2022-09-06T10:09:48.149Z,20.97
2022-09-06T10:12:19.816Z,20.86
2022-09-06T10:14:48.921Z,20.69
2022-09-06T10:17:21.382Z,20.62
2022-09-06T10:19:48.847Z,20.72
2022-09-06T10:22:28.062Z,20.87
2022-09-06T10:25:15.482Z,20.79
2022-09-06T10:28:12.022Z,20.63
2022-09-06T10:30:53.733Z,20.86
2022-09-06T10:33:41.327Z,20.39
2022-09-06T10:36:07.874Z,20.70
2022-09-06T10:38:55.189Z,20.66
2022-09-06T10:41:49.706Z,20.69
2022-09-06T10:44:26.602Z,20.94
2022-09-06T10:47:01.532Z,20.49
2022-09-06T10:49:28.587Z,20.34
2022-09-06T10:51:59.530Z,20.35
2022-09-06T10:54:26.111Z,20.31
2022-09-06T10:57:01.288Z,20.31
2022-09-06T11:02:13.189Z,20.55
2022-09-06T11:10:40.259Z,20.78
2022-09-06T11:13:12.052Z,20.55
2022-09-06T11:15:46.573Z,20.53
2022-09-06T11:18:26.067Z,20.21
2022-09-06T11:21:27.434Z,20.27
2022-09-06T11:24:01.013Z,20.18
2022-09-06T11:26:40.501Z,20.32
2022-09-06T11:29:24.241Z,20.12
2022-09-06T11:32:17.697Z,19.97
2022-09-06T11:34:51.802Z,20.02
2022-09-06T11:37:33.898Z,20.15
2022-09-06T11:40:30.873Z,20.22
2022-09-06T11:42:59.269Z,19.93
2022-09-06T11:45:43.241Z,20.37
2022-09-06T11:48:34.472Z,20.23
2022-09-06T11:51:06.459Z,20.48
2022-09-06T11:53:36.158Z,20.61
2022-09-06T11:56:02.627Z,20.48
2022-09-06T11:58:32.777Z,20.05
2022-09-06T12:01:16.448Z,19.76
2022-09-06T12:06:49.230Z,19.94
2022-09-06T12:09:33.366Z,20.04
2022-09-06T12:12:00.606Z,19.51
2022-09-06T12:14:31.142Z,19.63
2022-09-06T12:16:57.518Z,19.46
2022-09-06T12:19:56.126Z,19.59
2022-09-06T12:22:35.918Z,19.62
2022-09-06T12:25:36.952Z,19.64
2022-09-06T12:28:05.354Z,19.31
2022-09-06T12:30:36.023Z,19.43
2022-09-06T12:33:06.693Z,19.56
2022-09-06T12:38:25.291Z,19.33
2022-09-06T12:40:56.360Z,19.49
2022-09-06T12:43:22.867Z,19.47
2022-09-06T12:45:51.094Z,19.40
2022-09-06T12:48:29.721Z,19.30
2022-09-06T12:51:02.425Z,19.29
2022-09-06T12:53:31.474Z,19.46
2022-09-06T12:56:12.543Z,19.53
2022-09-06T12:58:39.568Z,19.42
2022-09-06T13:01:22.742Z,19.45
2022-09-06T13:03:55.389Z,19.53
2022-09-06T13:06:27.005Z,19.49
2022-09-06T13:08:55.746Z,19.39
2022-09-06T13:11:27.570Z,19.27
2022-09-06T13:13:54.850Z,19.22
2022-09-06T13:16:26.813Z,19.23
2022-09-06T13:18:54.001Z,19.38
2022-09-06T13:21:35.327Z,19.18
2022-09-06T13:24:24.995Z,19.30
2022-09-06T13:26:51.998Z,19.29
2022-09-06T13:29:19.872Z,19.16
2022-09-06T13:31:47.733Z,19.27
2022-09-06T13:34:25.613Z,19.26
2022-09-06T13:36:54.286Z,19.39
2022-09-06T13:39:42.223Z,19.33
2022-09-06T13:42:30.642Z,19.34
2022-09-06T13:45:01.810Z,19.39
2022-09-06T13:47:29.916Z,19.34
2022-09-06T13:49:56.505Z,19.42
2022-09-06T13:52:23.346Z,19.41
2022-09-06T13:54:49.911Z,19.34
2022-09-06T13:57:19.965Z,19.54
2022-09-06T13:59:50.347Z,19.07
2022-09-06T14:02:19.648Z,19.19
2022-09-06T14:04:46.169Z,19.06
2022-09-06T14:07:12.962Z,18.90
2022-09-06T14:09:39.478Z,18.93
2022-09-06T14:12:10.136Z,19.01
2022-09-06T14:14:36.688Z,18.83
2022-09-06T14:17:03.271Z,18.92
2022-09-06T14:19:29.843Z,18.74
2022-09-06T14:21:56.384Z,18.76
2022-09-06T14:24:23.026Z,18.75
2022-09-06T14:26:49.563Z,18.70
2022-09-06T14:29:16.324Z,18.61
2022-09-06T14:31:42.814Z,18.71
2022-09-06T14:34:09.334Z,18.60
2022-09-06T14:36:35.872Z,18.53
2022-09-06T14:39:02.631Z,18.45
2022-09-06T14:41:29.153Z,18.51
2022-09-06T14:43:57.282Z,18.43
2022-09-06T14:46:25.584Z,18.18
2022-09-06T14:49:07.614Z,17.62
2022-09-06T14:51:34.891Z,17.43
2022-09-06T14:54:12.284Z,17.38
2022-09-06T14:56:40.472Z,17.29
2022-09-06T14:59:09.192Z,17.30
2022-09-06T15:01:38.650Z,17.42
2022-09-06T15:04:07.151Z,17.47
2022-09-06T15:06:34.704Z,17.59
2022-09-06T15:09:01.235Z,17.66
2022-09-06T15:11:42.489Z,17.75
2022-09-06T15:14:15.303Z,17.92
2022-09-06T15:16:42.716Z,17.91
2022-09-06T15:19:10.167Z,17.93
2022-09-06T15:21:37.045Z,17.95
2022-09-06T15:24:06.425Z,17.99
2022-09-06T15:26:34.968Z,18.10
2022-09-06T15:29:02.188Z,18.04
2022-09-06T15:31:28.912Z,18.01
2022-09-06T15:33:55.661Z,17.99
2022-09-06T15:36:22.571Z,17.90
2022-09-06T15:38:50.169Z,17.96
2022-09-06T15:41:26.248Z,17.96
2022-09-06T15:43:54.995Z,18.09
2022-09-06T15:46:40.213Z,18.03
2022-09-06T15:49:07.822Z,18.03
2022-09-06T15:51:35.494Z,18.11
2022-09-06T15:54:02.139Z,18.16
2022-09-06T15:56:28.706Z,18.19
2022-09-06T15:58:55.489Z,18.26
2022-09-06T16:01:23.555Z,18.12
2022-09-06T16:03:53.225Z,18.23
2022-09-06T16:08:58.848Z,18.17
2022-09-06T16:11:26.339Z,18.35
2022-09-06T16:13:53.101Z,18.54
2022-09-06T16:16:19.665Z,18.60
2022-09-06T16:18:47.269Z,18.44
2022-09-06T16:21:19.393Z,18.38
2022-09-06T16:23:51.127Z,18.24
2022-09-06T16:26:21.560Z,18.20
2022-09-06T16:28:49.730Z,18.11
2022-09-06T16:31:16.309Z,18.18
2022-09-06T16:33:44.015Z,18.21
2022-09-06T16:36:10.582Z,18.25
2022-09-06T16:38:38.502Z,18.17
2022-09-06T16:41:29.280Z,18.17
2022-09-06T16:43:55.836Z,18.18
2022-09-06T16:46:23.983Z,18.01
2022-09-06T16:48:55.831Z,17.90
2022-09-06T16:51:24.574Z,17.88
2022-09-06T16:53:52.003Z,17.82
2022-09-06T16:56:22.067Z,17.78
2022-09-06T16:59:11.331Z,17.66
2022-09-06T17:01:41.880Z,17.73
2022-09-06T17:04:09.529Z,17.61
2022-09-06T17:06:42.129Z,17.53
2022-09-06T17:09:08.682Z,17.47
2022-09-06T17:11:37.337Z,17.48
2022-09-06T17:14:04.100Z,17.47
2022-09-06T17:16:48.973Z,17.42
2022-09-06T17:19:16.228Z,17.33
2022-09-06T17:21:43.615Z,17.35
2022-09-06T17:24:10.732Z,17.33
2022-09-06T17:26:39.082Z,17.32
2022-09-06T17:29:06.914Z,17.32
2022-09-06T17:31:34.020Z,17.27
2022-09-06T17:34:00.696Z,17.30
2022-09-06T17:36:30.326Z,17.26
2022-09-06T17:39:08.547Z,17.20
2022-09-06T17:41:39.663Z,17.12
2022-09-06T17:44:11.133Z,17.05
2022-09-06T17:46:47.596Z,17.03
2022-09-06T17:49:18.906Z,17.04
2022-09-06T17:51:46.273Z,16.95
2022-09-06T17:54:13.463Z,16.91
2022-09-06T17:56:40.136Z,16.86
2022-09-06T17:59:09.587Z,16.82
2022-09-06T18:01:37.989Z,16.78
2022-09-06T18:04:05.985Z,16.68
2022-09-06T18:06:33.559Z,16.71
2022-09-06T18:09:05.061Z,16.72
2022-09-06T18:11:33.216Z,16.65
2022-09-06T18:14:05.174Z,16.70
2022-09-06T18:16:32.618Z,16.65
2022-09-06T18:19:01.136Z,16.58
2022-09-06T18:21:29.212Z,16.58
2022-09-06T18:23:56.040Z,16.52
2022-09-06T18:26:23.118Z,16.54
2022-09-06T18:28:50.109Z,16.50
2022-09-06T18:31:19.770Z,16.44
2022-09-06T18:33:46.395Z,16.39
2022-09-06T18:36:15.448Z,16.31
2022-09-06T18:38:45.394Z,16.30
2022-09-06T18:41:34.227Z,16.38
2022-09-06T18:44:05.123Z,16.28
2022-09-06T18:46:33.926Z,16.30
2022-09-06T18:49:00.884Z,16.26
2022-09-06T18:51:27.804Z,16.25
2022-09-06T18:53:56.890Z,16.15
2022-09-06T18:56:24.246Z,16.10
2022-09-06T18:58:54.591Z,16.06
2022-09-06T19:01:21.836Z,16.03
2022-09-06T19:03:48.563Z,16.02
2022-09-06T19:06:19.228Z,16.03
2022-09-06T19:08:46.747Z,16.02
2022-09-06T19:11:16.995Z,16.01
2022-09-06T19:13:44.886Z,16.07
2022-09-06T19:16:13.360Z,15.91
2022-09-06T19:18:40.675Z,15.92
2022-09-06T19:21:09.928Z,15.93
2022-09-06T19:23:38.751Z,16.02
2022-09-06T19:26:08.906Z,15.93
2022-09-06T19:28:36.747Z,15.86
2022-09-06T19:31:12.576Z,15.82
2022-09-06T19:33:40.415Z,15.83
2022-09-06T19:36:11.949Z,15.82
2022-09-06T19:39:01.516Z,15.81
2022-09-06T19:41:26.234Z,15.78
2022-09-06T19:43:54.269Z,15.74
2022-09-06T19:46:21.257Z,15.85
2022-09-06T19:48:49.850Z,15.78
2022-09-06T19:51:17.385Z,15.75
2022-09-06T19:53:48.017Z,15.81
2022-09-06T19:56:18.130Z,15.80
2022-09-06T19:58:45.152Z,15.79
2022-09-06T20:01:17.890Z,15.71
2022-09-06T20:03:44.796Z,15.72
2022-09-06T20:06:11.907Z,15.80
2022-09-06T20:08:39.474Z,15.73
2022-09-06T20:11:08.104Z,15.79
2022-09-06T20:13:36.411Z,15.80
2022-09-06T20:16:04.730Z,15.77
2022-09-06T20:18:31.261Z,15.70
2022-09-06T20:20:59.363Z,15.69
2022-09-06T20:23:30.059Z,15.67
2022-09-06T20:26:05.168Z,15.68
2022-09-06T20:28:32.115Z,15.62
2022-09-06T20:31:10.751Z,15.60
2022-09-06T20:33:37.830Z,15.64
2022-09-06T20:36:06.776Z,15.63
2022-09-06T20:38:35.179Z,15.76
2022-09-06T20:41:04.613Z,15.72
2022-09-06T20:43:33.697Z,15.72
2022-09-06T20:46:01.674Z,15.68
2022-09-06T20:48:28.355Z,15.60
2022-09-06T20:51:02.937Z,15.65
2022-09-06T20:53:30.415Z,15.63
2022-09-06T20:56:05.336Z,15.68
2022-09-06T20:58:32.859Z,15.63
2022-09-06T21:00:59.856Z,15.61
2022-09-06T21:03:26.945Z,15.55
2022-09-06T21:05:54.090Z,15.61
2022-09-06T21:08:20.809Z,15.57
2022-09-06T21:10:48.994Z,15.50
2022-09-06T21:13:15.508Z,15.46
2022-09-06T21:15:42.219Z,15.43
2022-09-06T21:18:09.375Z,15.45
2022-09-06T21:20:36.339Z,15.45
2022-09-06T21:23:03.366Z,15.44
2022-09-06T21:25:29.964Z,15.45
2022-09-06T21:27:56.569Z,15.53
2022-09-06T21:30:23.408Z,15.51
2022-09-06T21:32:53.696Z,15.46
2022-09-06T21:35:20.406Z,15.45
2022-09-06T21:37:46.931Z,15.51
2022-09-06T21:40:13.829Z,15.53
2022-09-06T21:42:40.428Z,15.49
2022-09-06T21:45:07.329Z,15.56
2022-09-06T21:47:34.038Z,15.60
2022-09-06T21:50:00.522Z,15.53
2022-09-06T21:52:30.384Z,15.54
2022-09-06T21:54:56.988Z,15.61
2022-09-06T21:57:23.576Z,15.56
2022-09-06T21:59:50.086Z,15.53
2022-09-06T22:02:16.893Z,15.48
2022-09-06T22:04:43.547Z,15.45
2022-09-06T22:07:10.163Z,15.30
2022-09-06T22:09:36.689Z,15.39
2022-09-06T22:12:03.449Z,15.40
2022-09-06T22:14:30.015Z,15.37
2022-09-06T22:16:56.674Z,15.23
2022-09-06T22:19:23.202Z,15.26
2022-09-06T22:21:52.839Z,15.21
2022-09-06T22:24:19.429Z,15.20
2022-09-06T22:26:45.964Z,15.16
2022-09-06T22:29:13.828Z,15.22
2022-09-06T22:31:40.430Z,15.16
2022-09-06T22:34:07.679Z,15.13
2022-09-06T22:36:34.465Z,15.08
2022-09-06T22:39:01.014Z,15.17
2022-09-06T22:41:30.419Z,15.20
2022-09-06T22:43:56.958Z,15.13
2022-09-06T22:46:23.587Z,15.16
2022-09-06T22:48:50.335Z,15.08
2022-09-06T22:51:16.893Z,15.02
2022-09-06T22:53:43.499Z,15.07
2022-09-06T22:56:10.012Z,15.03
2022-09-06T22:58:36.538Z,14.97
2022-09-06T23:01:14.065Z,14.99
2022-09-06T23:03:42.122Z,14.97
2022-09-06T23:06:08.804Z,14.91
2022-09-06T23:08:36.955Z,14.96
2022-09-06T23:11:06.610Z,14.93
2022-09-06T23:13:33.372Z,14.93
2022-09-06T23:16:07.584Z,14.97
2022-09-06T23:18:34.352Z,15.00
2022-09-06T23:21:08.602Z,14.98
2022-09-06T23:23:36.158Z,14.99
2022-09-06T23:26:29.420Z,15.02
2022-09-06T23:28:58.699Z,14.93
2022-09-06T23:31:27.053Z,14.79
2022-09-06T23:33:55.151Z,14.93
2022-09-06T23:36:21.752Z,14.79
2022-09-06T23:38:48.422Z,14.80
2022-09-06T23:41:15.069Z,14.69
2022-09-06T23:43:42.515Z,14.82
2022-09-06T23:46:10.216Z,14.84
2022-09-06T23:48:36.966Z,14.83
2022-09-06T23:51:03.869Z,14.78
2022-09-06T23:53:30.589Z,14.70
2022-09-06T23:55:57.237Z,14.70
2022-09-06T23:58:23.806Z,14.66
